Time;durP1;ratioP1;P1;durP2;ratioP2;P2;SDS_P1;SDS_P2;PMS_P1;PMS_P2;Temp;Humidity;BMP_temperature;BMP_pressure;BME280_temperature;BME280_humidity;BME280_pressure;Samples;Min_cycle;Max_cycle;Signal;HPM_P1;HPM_P2
2022/05/30 00:00:43;;;;;;;0.40;0.40;;;22.40;63.90;;;;;;5073577;28;20206;-76
2022/05/30 00:03:11;;;;;;;1.05;0.52;;;22.40;64.00;;;;;;5073298;28;20238;-76
2022/05/30 00:05:38;;;;;;;1.10;0.30;;;22.40;64.20;;;;;;5073518;28;20231;-76
2022/05/30 00:08:06;;;;;;;1.13;0.43;;;22.40;64.30;;;;;;5073263;28;20733;-76
2022/05/30 00:10:33;;;;;;;0.30;0.30;;;22.40;64.30;;;;;;5073550;28;20200;-76
2022/05/30 00:13:00;;;;;;;0.55;0.22;;;22.40;64.30;;;;;;5073474;28;20314;-76
2022/05/30 00:15:29;;;;;;;0.32;0.20;;;22.40;64.40;;;;;;5073479;28;20207;-76
2022/05/30 00:17:57;;;;;;;0.63;0.30;;;22.40;64.30;;;;;;5076531;28;20233;-75
2022/05/30 00:20:24;;;;;;;1.50;0.40;;;22.30;64.30;;;;;;5077589;28;20225;-75
2022/05/30 00:22:52;;;;;;;0.30;0.30;;;22.40;64.40;;;;;;5077386;28;20268;-75
2022/05/30 00:25:20;;;;;;;0.40;0.40;;;22.40;64.40;;;;;;5077501;28;20337;-75
2022/05/30 00:27:47;;;;;;;0.82;0.28;;;22.40;64.40;;;;;;5077428;28;20208;-75
2022/05/30 00:30:16;;;;;;;0.50;0.30;;;22.40;64.30;;;;;;5077106;28;20195;-75
2022/05/30 00:32:43;;;;;;;0.88;0.35;;;22.40;64.30;;;;;;5076946;28;20718;-75
2022/05/30 00:35:11;;;;;;;0.30;0.30;;;22.40;64.30;;;;;;5077287;28;20302;-75
2022/05/30 00:37:38;;;;;;;2.00;0.35;;;22.40;64.30;;;;;;5077232;28;20199;-75
2022/05/30 00:40:06;;;;;;;0.95;0.30;;;22.40;64.30;;;;;;5077206;28;20199;-75
2022/05/30 00:42:35;;;;;;;1.10;0.20;;;22.40;64.40;;;;;;5077008;28;20255;-75
2022/05/30 00:45:01;;;;;;;1.33;0.20;;;22.30;64.30;;;;;;5077066;28;20245;-75
2022/05/30 00:47:28;;;;;;;0.20;0.20;;;22.30;64.30;;;;;;5077056;28;20195;-75
2022/05/30 00:49:56;;;;;;;2.47;0.63;;;22.30;64.30;;;;;;5077002;28;20231;-75
2022/05/30 00:52:28;;;;;;;8.68;0.45;;;22.40;64.40;;;;;;5076799;28;20221;-75
2022/05/30 00:54:59;;;;;;;2.17;0.43;;;22.40;64.50;;;;;;5076991;28;20214;-75
2022/05/30 00:57:28;;;;;;;0.30;0.30;;;22.40;64.60;;;;;;5076882;28;20195;-75
2022/05/30 01:00:02;;;;;;;0.30;0.30;;;22.40;64.70;;;;;;5076792;28;20200;-75
2022/05/30 01:02:31;;;;;;;0.38;0.38;;;22.30;64.70;;;;;;5076245;28;20219;-75
2022/05/30 01:07:45;;;;;;;0.30;0.30;;;22.30;64.80;;;;;;5076466;28;20183;-75
2022/05/30 01:10:14;;;;;;;0.20;0.20;;;22.30;64.90;;;;;;5076630;28;20286;-75
2022/05/30 01:12:44;;;;;;;0.30;0.30;;;22.30;64.90;;;;;;5076190;28;20216;-75
2022/05/30 01:15:14;;;;;;;1.70;0.30;;;22.30;65.00;;;;;;5076472;28;20291;-75
2022/05/30 01:17:49;;;;;;;5.13;0.40;;;22.40;65.10;;;;;;5076502;28;20194;-75
2022/05/30 01:20:26;;;;;;;0.73;0.30;;;22.40;65.20;;;;;;5076487;28;20191;-75
2022/05/30 01:23:24;;;;;;;0.20;0.20;;;22.40;65.10;;;;;;5075929;28;20592;-75
2022/05/30 01:26:22;;;;;;;0.20;0.20;;;22.40;65.20;;;;;;5076368;28;20199;-75
2022/05/30 01:28:56;;;;;;;0.30;0.22;;;22.30;65.20;;;;;;5075099;28;20194;-75
2022/05/30 01:31:24;;;;;;;0.30;0.30;;;22.30;65.30;;;;;;5075978;28;20179;-75
2022/05/30 01:33:52;;;;;;;3.03;0.40;;;22.30;65.40;;;;;;5076140;28;20417;-75
2022/05/30 01:36:22;;;;;;;3.85;0.40;;;22.30;65.40;;;;;;5076481;28;20205;-75
2022/05/30 01:38:49;;;;;;;0.20;0.20;;;22.30;65.40;;;;;;5075854;28;20294;-75
2022/05/30 01:41:16;;;;;;;0.35;0.28;;;22.30;65.40;;;;;;5075741;28;20337;-75
2022/05/30 01:43:43;;;;;;;2.35;0.30;;;22.30;65.50;;;;;;5075987;28;20314;-75
2022/05/30 01:46:13;;;;;;;0.32;0.30;;;22.30;65.50;;;;;;5076021;28;20204;-75
2022/05/30 01:48:40;;;;;;;2.47;0.30;;;22.30;65.50;;;;;;5075666;28;20275;-75
2022/05/30 01:51:07;;;;;;;0.25;0.25;;;22.30;65.50;;;;;;5075884;28;20636;-75
2022/05/30 01:53:34;;;;;;;0.28;0.20;;;22.30;65.60;;;;;;5075845;28;20310;-75
2022/05/30 01:56:01;;;;;;;1.45;0.30;;;22.30;65.60;;;;;;5075830;28;20234;-75
2022/05/30 01:58:28;;;;;;;2.72;0.40;;;22.30;65.60;;;;;;5075732;28;20282;-75
2022/05/30 02:00:55;;;;;;;0.20;0.20;;;22.30;65.60;;;;;;5075703;28;20204;-75
2022/05/30 02:03:23;;;;;;;0.43;0.30;;;22.30;65.60;;;;;;5075494;28;20318;-75
2022/05/30 02:05:50;;;;;;;0.35;0.35;;;22.30;65.60;;;;;;5075313;28;20295;-75
2022/05/30 02:08:21;;;;;;;0.73;0.30;;;22.30;65.60;;;;;;5075230;28;20211;-75
2022/05/30 02:10:48;;;;;;;0.70;0.30;;;22.30;65.60;;;;;;5075552;28;20184;-75
2022/05/30 02:13:15;;;;;;;0.55;0.30;;;22.30;65.70;;;;;;5075407;28;20249;-75
2022/05/30 02:18:28;;;;;;;0.25;0.25;;;22.30;65.80;;;;;;5075471;28;20182;-75
2022/05/30 02:20:54;;;;;;;0.43;0.30;;;22.20;65.70;;;;;;5075309;28;20290;-75
2022/05/30 02:23:21;;;;;;;0.77;0.40;;;22.30;65.80;;;;;;5075117;28;20247;-75
2022/05/30 02:25:48;;;;;;;1.02;0.40;;;22.20;65.70;;;;;;5075173;28;20206;-75
2022/05/30 02:28:15;;;;;;;0.20;0.20;;;22.30;65.80;;;;;;5075151;28;20205;-75
2022/05/30 02:30:42;;;;;;;0.25;0.25;;;22.30;65.80;;;;;;5075042;28;20219;-75
2022/05/30 02:38:39;;;;;;;1.02;0.30;;;22.20;65.80;;;;;;5075067;28;20566;-75
2022/05/30 02:41:06;;;;;;;1.20;0.30;;;22.20;65.90;;;;;;5074317;28;20658;-74
2022/05/30 02:43:33;;;;;;;0.35;0.35;;;22.20;66.00;;;;;;5074407;28;20310;-74
2022/05/30 02:45:59;;;;;;;0.70;0.30;;;22.20;66.00;;;;;;5074878;28;20221;-74
2022/05/30 02:48:26;;;;;;;0.35;0.35;;;22.30;66.00;;;;;;5074430;28;20659;-74
2022/05/30 02:50:55;;;;;;;1.45;0.20;;;22.20;66.00;;;;;;5074700;28;20210;-74
2022/05/30 02:53:21;;;;;;;0.10;0.10;;;22.30;66.10;;;;;;5074599;28;20249;-75
2022/05/30 02:55:48;;;;;;;2.40;0.30;;;22.30;66.20;;;;;;5074559;28;20238;-75
2022/05/30 02:58:15;;;;;;;1.85;0.22;;;22.20;66.10;;;;;;5074539;28;20199;-75
2022/05/30 03:00:42;;;;;;;3.50;0.38;;;22.20;66.10;;;;;;5074459;28;20287;-75
2022/05/30 03:03:09;;;;;;;0.52;0.30;;;22.20;66.20;;;;;;5074091;28;20228;-75
2022/05/30 03:05:38;;;;;;;0.65;0.20;;;22.20;66.30;;;;;;5074464;28;20184;-75
2022/05/30 03:08:08;;;;;;;3.90;0.75;;;22.20;66.30;;;;;;5074391;28;20203;-75
2022/05/30 03:10:35;;;;;;;1.38;0.30;;;22.20;66.30;;;;;;5074359;28;20194;-75
2022/05/30 03:13:02;;;;;;;0.32;0.30;;;22.20;66.40;;;;;;5073942;28;20601;-75
2022/05/30 03:15:29;;;;;;;4.88;0.70;;;22.20;66.50;;;;;;5074211;28;20203;-75
2022/05/30 03:17:56;;;;;;;2.92;0.30;;;22.20;66.50;;;;;;5073865;28;20761;-75
2022/05/30 03:20:23;;;;;;;1.38;0.32;;;22.20;66.50;;;;;;5074157;28;20205;-75
2022/05/30 03:22:50;;;;;;;1.23;0.25;;;22.20;66.60;;;;;;5073970;28;20310;-75
2022/05/30 03:25:19;;;;;;;0.40;0.40;;;22.20;66.60;;;;;;5074071;28;20286;-75
2022/05/30 03:27:46;;;;;;;1.05;0.35;;;22.20;67.30;;;;;;5074053;28;20237;-75
2022/05/30 03:30:14;;;;;;;0.40;0.40;;;22.20;66.60;;;;;;5073960;28;20200;-75
2022/05/30 03:32:43;;;;;;;0.20;0.20;;;22.20;66.60;;;;;;5073962;28;20306;-75
2022/05/30 03:35:11;;;;;;;0.20;0.20;;;22.20;66.60;;;;;;5073935;28;20199;-75
2022/05/30 03:37:40;;;;;;;0.32;0.30;;;22.20;66.70;;;;;;5073888;28;20566;-75
2022/05/30 03:40:10;;;;;;;0.30;0.30;;;22.20;66.70;;;;;;5073931;28;20199;-75
2022/05/30 03:42:38;;;;;;;0.22;0.22;;;22.20;67.40;;;;;;5073711;28;20311;-75
2022/05/30 03:45:07;;;;;;;0.32;0.32;;;22.20;66.70;;;;;;5073814;28;20199;-75
2022/05/30 03:47:37;;;;;;;0.30;0.30;;;22.20;66.60;;;;;;5073825;28;20230;-75
2022/05/30 03:50:05;;;;;;;1.00;0.25;;;22.20;66.70;;;;;;5073492;28;20184;-75
2022/05/30 03:52:33;;;;;;;0.28;0.20;;;22.20;66.80;;;;;;5073058;28;20298;-75
2022/05/30 03:54:59;;;;;;;1.13;0.10;;;22.20;66.80;;;;;;5073676;28;20214;-75
2022/05/30 03:57:26;;;;;;;0.93;0.30;;;22.20;66.80;;;;;;5073736;28;20230;-75
2022/05/30 03:59:54;;;;;;;0.63;0.30;;;22.20;66.80;;;;;;5073672;28;20278;-75
2022/05/30 04:02:21;;;;;;;0.20;0.20;;;22.20;66.80;;;;;;5073467;28;20315;-75
2022/05/30 04:04:48;;;;;;;0.28;0.28;;;22.20;66.80;;;;;;5073266;28;20210;-75
2022/05/30 04:07:15;;;;;;;2.20;0.30;;;22.20;66.80;;;;;;5074601;28;20290;-81
2022/05/30 04:09:42;;;;;;;0.57;0.40;;;22.20;66.80;;;;;;5075061;28;20251;-83
2022/05/30 04:12:10;;;;;;;0.30;0.30;;;22.20;66.90;;;;;;5073901;28;20199;-83
2022/05/30 04:14:37;;;;;;;1.95;0.30;;;22.20;66.90;;;;;;5073478;28;20282;-83
2022/05/30 04:17:05;;;;;;;3.10;0.30;;;22.20;67.60;;;;;;5073824;28;20290;-82
2022/05/30 04:19:32;;;;;;;1.45;0.28;;;22.20;66.90;;;;;;5075464;28;20278;-82
2022/05/30 04:22:00;;;;;;;0.20;0.20;;;22.20;66.90;;;;;;5075996;28;20206;-82
2022/05/30 04:24:28;;;;;;;0.20;0.20;;;22.20;66.90;;;;;;5074541;28;20223;-82
2022/05/30 04:26:56;;;;;;;0.60;0.20;;;22.20;67.00;;;;;;5076971;28;20210;-80
2022/05/30 04:29:22;;;;;;;0.30;0.30;;;22.20;67.00;;;;;;5074442;28;20289;-75
2022/05/30 04:31:49;;;;;;;3.35;0.40;;;22.20;67.00;;;;;;5073042;28;20294;-73
2022/05/30 04:34:18;;;;;;;3.35;0.70;;;22.20;67.00;;;;;;5073280;28;20250;-73
2022/05/30 04:36:44;;;;;;;0.30;0.30;;;22.20;66.80;;;;;;5072999;28;20252;-73
2022/05/30 04:39:11;;;;;;;0.50;0.50;;;22.20;66.70;;;;;;5073276;28;20286;-73
2022/05/30 04:41:38;;;;;;;4.68;0.60;;;22.10;66.50;;;;;;5073346;28;20202;-74
2022/05/30 04:44:05;;;;;;;5.88;0.68;;;22.10;66.40;;;;;;5073085;28;20306;-72
2022/05/30 04:46:32;;;;;;;3.80;1.20;;;22.10;66.40;;;;;;5073183;28;20674;-73
2022/05/30 04:48:59;;;;;;;5.57;0.90;;;22.10;66.30;;;;;;5072860;28;20199;-74
2022/05/30 04:51:27;;;;;;;14.43;1.65;;;22.10;66.00;;;;;;5073114;28;20203;-74
2022/05/30 04:53:54;;;;;;;17.15;1.23;;;22.00;65.70;;;;;;5073019;28;20220;-75
2022/05/30 04:56:21;;;;;;;8.02;0.70;;;22.00;65.40;;;;;;5073393;28;20195;-76
2022/05/30 04:58:49;;;;;;;10.05;0.88;;;22.00;65.20;;;;;;5073419;28;20721;-77
2022/05/30 05:01:16;;;;;;;4.07;0.50;;;22.00;65.00;;;;;;5073489;28;20206;-76
2022/05/30 05:03:44;;;;;;;3.38;0.50;;;22.00;65.00;;;;;;5075531;28;20223;-74
2022/05/30 05:06:13;;;;;;;5.18;0.43;;;22.00;64.90;;;;;;5076692;28;20572;-74
2022/05/30 05:08:49;;;;;;;2.50;0.50;;;22.00;64.70;;;;;;5076710;28;20290;-75
2022/05/30 05:11:22;;;;;;;8.70;0.85;;;22.00;64.60;;;;;;5076326;28;20198;-74
2022/05/30 05:13:50;;;;;;;7.07;0.90;;;22.00;64.50;;;;;;5076303;28;20742;-76
2022/05/30 05:16:18;;;;;;;10.20;2.35;;;22.00;64.30;;;;;;5076789;28;20196;-76
2022/05/30 05:18:45;;;;;;;2.13;1.52;;;22.00;64.40;;;;;;5076515;28;20226;-76
2022/05/30 05:21:18;;;;;;;6.05;1.75;;;21.90;62.90;;;;;;5076082;28;20206;-76
2022/05/30 05:23:47;;;;;;;4.32;1.73;;;21.80;62.50;;;;;;5076347;28;20227;-75
2022/05/30 05:26:14;;;;;;;8.02;2.20;;;21.80;62.30;;;;;;5076403;28;20203;-74
2022/05/30 05:28:41;;;;;;;5.55;2.03;;;21.80;62.10;;;;;;5076350;28;20206;-74
2022/05/30 05:31:08;;;;;;;9.05;2.35;;;21.80;61.80;;;;;;5075966;28;20203;-74
2022/05/30 05:33:36;;;;;;;10.02;2.30;;;21.80;61.50;;;;;;5075877;28;20732;-74
2022/05/30 05:36:04;;;;;;;11.20;2.33;;;21.80;61.20;;;;;;5075881;28;20645;-74
2022/05/30 05:38:31;;;;;;;9.68;2.42;;;21.80;60.90;;;;;;5075824;28;20666;-72
2022/05/30 05:40:59;;;;;;;9.20;1.95;;;21.80;60.60;;;;;;5075778;28;20732;-72
2022/05/30 05:43:26;;;;;;;5.18;1.98;;;21.80;61.10;;;;;;5075633;28;20773;-72
2022/05/30 05:45:53;;;;;;;11.82;2.28;;;21.80;60.00;;;;;;5075694;28;20291;-72
2022/05/30 05:48:20;;;;;;;8.68;1.98;;;21.90;59.90;;;;;;5075976;28;20195;-72
2022/05/30 05:50:46;;;;;;;10.90;2.42;;;21.90;59.80;;;;;;5075880;28;20286;-72
2022/05/30 05:53:13;;;;;;;6.07;1.83;;;21.90;59.50;;;;;;5075495;28;20635;-72
2022/05/30 05:55:40;;;;;;;7.18;1.95;;;21.90;59.40;;;;;;5075829;28;20199;-72
2022/05/30 05:58:08;;;;;;;7.30;1.92;;;21.90;59.20;;;;;;5075759;28;20210;-72
2022/05/30 06:00:36;;;;;;;7.78;2.08;;;21.90;59.00;;;;;;5075712;28;20202;-72
2022/05/30 06:03:03;;;;;;;6.65;1.70;;;21.90;58.90;;;;;;5075110;28;20588;-72
2022/05/30 06:05:31;;;;;;;4.60;1.95;;;21.90;58.60;;;;;;5075386;28;20436;-72
2022/05/30 06:08:00;;;;;;;4.05;1.70;;;21.90;58.50;;;;;;5075505;28;20306;-72
2022/05/30 06:10:27;;;;;;;4.68;2.15;;;21.90;58.20;;;;;;5075539;28;20234;-72
2022/05/30 06:12:54;;;;;;;6.18;1.52;;;21.90;58.20;;;;;;5075382;28;20219;-72
2022/05/30 06:15:22;;;;;;;3.65;1.85;;;22.00;58.30;;;;;;5074810;28;20260;-72
2022/05/30 06:17:49;;;;;;;5.60;1.95;;;22.00;58.30;;;;;;5075384;28;20231;-72
2022/05/30 06:20:18;;;;;;;6.28;1.50;;;22.00;58.30;;;;;;5075344;28;20199;-72
2022/05/30 06:22:45;;;;;;;4.00;1.83;;;22.00;58.20;;;;;;5075175;28;20322;-72
2022/05/30 06:25:12;;;;;;;4.18;1.52;;;22.00;58.10;;;;;;5074897;28;20637;-72
2022/05/30 06:27:39;;;;;;;4.35;2.40;;;22.00;57.90;;;;;;5074900;28;20608;-72
2022/05/30 06:30:07;;;;;;;5.97;1.75;;;22.00;57.80;;;;;;5075118;28;20203;-72
2022/05/30 06:32:36;;;;;;;4.63;1.70;;;22.00;57.70;;;;;;5075081;28;20310;-72
2022/05/30 06:35:03;;;;;;;5.45;1.77;;;22.00;57.50;;;;;;5075011;28;20242;-72
2022/05/30 06:37:30;;;;;;;4.38;1.77;;;22.00;57.40;;;;;;5074971;28;20290;-72
2022/05/30 06:39:57;;;;;;;2.55;2.15;;;22.00;57.30;;;;;;5074962;28;20203;-72
2022/05/30 06:42:24;;;;;;;4.03;1.58;;;22.00;57.20;;;;;;5074820;28;20223;-72
2022/05/30 06:44:51;;;;;;;5.32;1.60;;;22.00;57.20;;;;;;5074736;28;20254;-72
2022/05/30 06:47:17;;;;;;;3.67;1.70;;;22.00;57.10;;;;;;5074480;28;20291;-72
2022/05/30 06:49:47;;;;;;;7.30;1.88;;;22.10;57.10;;;;;;5074679;28;20290;-72
2022/05/30 06:52:14;;;;;;;4.50;1.58;;;22.10;57.00;;;;;;5074296;28;20737;-72
2022/05/30 06:54:41;;;;;;;2.92;1.63;;;22.10;56.90;;;;;;5074590;28;20282;-72
2022/05/30 06:59:52;;;;;;;4.60;1.70;;;22.10;56.80;;;;;;5074616;28;20274;-72
2022/05/30 07:02:19;;;;;;;3.33;1.73;;;22.00;56.70;;;;;;5074140;28;20697;-72
2022/05/30 07:04:47;;;;;;;2.78;1.58;;;22.10;56.70;;;;;;5074001;28;20223;-72
2022/05/30 07:07:14;;;;;;;4.07;1.40;;;22.10;56.60;;;;;;5074403;28;20196;-72
2022/05/30 07:09:42;;;;;;;1.98;1.70;;;22.10;56.50;;;;;;5074062;28;20207;-72
2022/05/30 07:12:10;;;;;;;4.30;1.77;;;22.10;56.40;;;;;;5074247;28;20196;-72
2022/05/30 07:14:38;;;;;;;4.13;1.60;;;22.10;56.40;;;;;;5074282;28;20225;-72
2022/05/30 07:17:06;;;;;;;2.72;1.38;;;22.10;56.40;;;;;;5074216;28;20204;-72
2022/05/30 07:19:33;;;;;;;3.63;1.67;;;22.10;56.30;;;;;;5073858;28;20195;-72
2022/05/30 07:22:02;;;;;;;3.60;1.58;;;22.10;56.30;;;;;;5073864;28;20775;-72
2022/05/30 07:24:30;;;;;;;3.65;1.83;;;22.10;56.20;;;;;;5073713;28;20762;-72
2022/05/30 07:26:57;;;;;;;3.03;1.50;;;22.10;56.20;;;;;;5073192;28;20205;-72
2022/05/30 07:29:26;;;;;;;3.20;1.70;;;22.10;56.10;;;;;;5073721;28;20712;-72
2022/05/30 07:31:58;;;;;;;3.58;1.75;;;22.10;56.10;;;;;;5073653;28;20597;-72
2022/05/30 07:34:26;;;;;;;4.20;1.60;;;22.10;56.00;;;;;;5073899;28;20216;-72
2022/05/30 07:36:53;;;;;;;1.88;1.42;;;22.10;56.00;;;;;;5073918;28;20204;-72
2022/05/30 07:39:21;;;;;;;2.50;1.48;;;22.10;55.90;;;;;;5073885;28;20278;-72
2022/05/30 07:41:49;;;;;;;4.32;1.80;;;22.10;55.90;;;;;;5073830;28;20225;-72
2022/05/30 07:44:15;;;;;;;1.75;1.50;;;22.10;55.90;;;;;;5073326;28;20216;-72
2022/05/30 07:46:43;;;;;;;5.57;1.13;;;22.10;55.80;;;;;;5073875;28;20210;-72
2022/05/30 07:49:10;;;;;;;1.00;1.00;;;22.10;55.80;;;;;;5073828;28;20214;-71
2022/05/30 07:51:37;;;;;;;3.45;1.50;;;22.10;55.90;;;;;;5073457;28;20205;-72
2022/05/30 07:54:04;;;;;;;1.40;1.30;;;22.10;55.70;;;;;;5073787;28;20306;-72
2022/05/30 07:56:33;;;;;;;3.45;1.52;;;22.10;55.70;;;;;;5073759;28;20294;-72
2022/05/30 07:59:00;;;;;;;1.73;1.05;;;22.10;55.70;;;;;;5073744;28;20199;-72
2022/05/30 08:01:26;;;;;;;1.83;1.38;;;22.10;55.60;;;;;;5073596;28;20241;-72
2022/05/30 08:03:53;;;;;;;1.55;1.15;;;22.10;55.60;;;;;;5086523;22;20598;-81
2022/05/30 08:06:22;;;;;;;1.33;1.23;;;22.10;55.60;;;;;;5057529;28;20743;-81
2022/05/30 08:08:49;;;;;;;1.30;1.20;;;22.20;55.60;;;;;;5057962;28;20204;-81
2022/05/30 08:11:17;;;;;;;2.33;1.30;;;22.10;55.50;;;;;;5057204;28;20326;-81
2022/05/30 08:13:46;;;;;;;3.22;1.40;;;22.10;55.50;;;;;;5057772;28;20216;-81
2022/05/30 08:16:14;;;;;;;1.27;1.17;;;22.10;55.50;;;;;;5058003;28;20200;-81
2022/05/30 08:18:41;;;;;;;1.23;1.08;;;22.10;55.40;;;;;;5057101;28;20204;-81
2022/05/30 08:21:08;;;;;;;1.58;1.48;;;22.10;55.40;;;;;;5057889;28;20212;-81
2022/05/30 08:23:35;;;;;;;4.75;1.40;;;22.10;55.40;;;;;;5057404;28;20635;-81
2022/05/30 08:26:02;;;;;;;3.25;1.48;;;22.10;55.40;;;;;;5055600;28;20634;-81
2022/05/30 08:28:29;;;;;;;1.38;1.27;;;22.10;55.30;;;;;;5055580;28;20291;-81
2022/05/30 08:30:57;;;;;;;1.33;1.08;;;22.20;55.40;;;;;;5054714;28;20231;-81
2022/05/30 08:33:24;;;;;;;2.33;1.42;;;22.20;55.30;;;;;;5054299;28;20255;-81
2022/05/30 08:35:59;;;;;;;1.75;1.30;;;22.20;55.40;;;;;;5054300;28;20287;-83
2022/05/30 08:38:26;;;;;;;2.45;1.15;;;22.20;55.30;;;;;;5056070;28;20215;-83
2022/05/30 08:43:41;;;;;;;1.38;1.20;;;22.20;55.30;;;;;;5057253;28;20242;-83
2022/05/30 08:46:13;;;;;;;2.50;1.10;;;22.10;55.20;;;;;;5057464;28;20196;-83
2022/05/30 08:48:45;;;;;;;3.78;1.33;;;22.20;55.20;;;;;;5057235;28;20195;-83
2022/05/30 08:51:23;;;;;;;1.15;1.10;;;22.10;55.20;;;;;;5057753;28;20196;-83
2022/05/30 08:54:15;;;;;;;2.15;1.33;;;22.20;55.20;;;;;;5057156;28;20220;-83
2022/05/30 08:56:44;;;;;;;1.23;1.15;;;22.20;55.10;;;;;;5057609;28;20208;-83
2022/05/30 08:59:39;;;;;;;1.20;1.15;;;22.20;55.20;;;;;;5056943;28;20200;-83
2022/05/30 09:02:19;;;;;;;1.70;1.50;;;22.20;55.10;;;;;;5058852;28;20223;-83
2022/05/30 09:04:51;;;;;;;2.72;1.20;;;22.20;55.20;;;;;;5057115;28;20211;-83
2022/05/30 09:07:22;;;;;;;1.20;1.10;;;22.20;55.20;;;;;;5056894;28;20188;-83
2022/05/30 09:09:55;;;;;;;1.35;1.27;;;22.20;55.20;;;;;;5057252;28;20180;-83
2022/05/30 09:12:29;;;;;;;2.05;1.23;;;22.20;55.10;;;;;;5057493;28;20184;-83
2022/05/30 09:15:01;;;;;;;1.23;1.10;;;22.20;55.10;;;;;;5057123;28;20268;-83
2022/05/30 09:17:36;;;;;;;1.23;1.13;;;22.20;55.10;;;;;;5057758;28;20219;-84
2022/05/30 09:20:08;;;;;;;1.33;1.23;;;22.20;55.00;;;;;;5058164;28;20192;-83
2022/05/30 09:22:36;;;;;;;1.42;1.20;;;22.20;55.10;;;;;;5061443;28;20259;-83
2022/05/30 09:27:48;;;;;;;3.15;1.40;;;22.20;55.00;;;;;;5056614;28;20646;-83
2022/05/30 09:30:20;;;;;;;2.58;1.25;;;22.20;55.10;;;;;;5056607;28;20262;-83
2022/05/30 09:33:02;;;;;;;1.50;1.00;;;22.20;55.00;;;;;;5056908;28;20223;-83
2022/05/30 09:35:32;;;;;;;1.15;1.15;;;22.20;55.60;;;;;;5056799;28;20185;-83
2022/05/30 09:38:07;;;;;;;1.13;1.13;;;22.20;55.10;;;;;;5057475;28;20246;-83
2022/05/30 09:40:40;;;;;;;2.83;1.20;;;22.20;55.00;;;;;;5056714;28;20689;-83
2022/05/30 09:43:08;;;;;;;1.75;1.25;;;22.20;55.00;;;;;;5057720;28;20311;-83
2022/05/30 09:45:36;;;;;;;2.65;1.30;;;22.20;55.00;;;;;;5058321;28;20222;-83
2022/05/30 09:48:07;;;;;;;1.83;1.05;;;22.20;55.00;;;;;;5058262;28;20207;-83
2022/05/30 09:50:42;;;;;;;1.00;0.90;;;22.20;55.00;;;;;;5056984;28;20188;-83
2022/05/30 09:53:09;;;;;;;1.27;0.93;;;22.20;55.00;;;;;;5058996;28;20247;-83
2022/05/30 09:55:38;;;;;;;1.85;0.70;;;22.20;55.00;;;;;;5060361;28;20278;-84
2022/05/30 09:58:07;;;;;;;1.38;1.25;;;22.20;55.00;;;;;;5060495;28;20200;-84
2022/05/30 10:00:41;;;;;;;1.00;1.00;;;22.20;54.90;;;;;;5060822;28;20291;-85
2022/05/30 10:03:24;;;;;;;14.20;2.15;;;22.20;54.90;;;;;;5059334;28;20314;-83
2022/05/30 10:05:51;;;;;;;11.93;1.88;;;22.20;54.90;;;;;;5059574;28;20205;-82
2022/05/30 10:08:26;;;;;;;6.45;1.50;;;22.20;54.90;;;;;;5059077;28;20275;-82
2022/05/30 10:10:56;;;;;;;11.63;1.55;;;22.20;54.80;;;;;;5058976;28;20588;-82
2022/05/30 10:13:35;;;;;;;9.57;1.33;;;22.20;54.80;;;;;;5059178;28;20630;-83
2022/05/30 10:16:03;;;;;;;7.32;1.20;;;22.20;54.60;;;;;;5060183;28;20203;-83
2022/05/30 10:18:35;;;;;;;4.68;1.05;;;22.20;54.60;;;;;;5074020;28;20240;-83
2022/05/30 10:21:15;;;;;;;9.82;1.17;;;22.20;54.50;;;;;;5076212;28;20193;-83
2022/05/30 10:30:12;;;;;;;3.00;1.00;;;22.20;54.30;;;;;;5014380;28;20173;-82
2022/05/30 10:32:48;;;;;;;3.50;1.05;;;22.10;54.10;;;;;;5053501;28;20243;-83
2022/05/30 10:35:28;;;;;;;3.00;1.10;;;22.10;54.00;;;;;;5074619;28;20200;-82
2022/05/30 10:38:20;;;;;;;4.25;1.20;;;22.20;53.80;;;;;;5069148;28;20588;-82
2022/05/30 10:41:02;;;;;;;3.53;1.10;;;22.20;53.70;;;;;;5062736;28;20200;-82
2022/05/30 10:43:51;;;;;;;3.70;1.10;;;22.10;53.70;;;;;;5065376;28;20227;-82
2022/05/30 10:46:21;;;;;;;5.78;1.00;;;22.20;53.70;;;;;;5061096;28;20307;-82
2022/05/30 10:48:59;;;;;;;1.50;0.98;;;22.10;53.70;;;;;;5063410;28;20195;-84
2022/05/30 10:51:32;;;;;;;10.20;0.95;;;22.20;53.70;;;;;;5070306;28;20180;-82
2022/05/30 10:54:05;;;;;;;2.72;0.90;;;22.20;53.70;;;;;;5070655;28;20221;-82
2022/05/30 10:56:37;;;;;;;2.28;0.75;;;22.20;53.70;;;;;;5069834;28;20207;-82
2022/05/30 10:59:13;;;;;;;1.88;0.65;;;22.20;53.70;;;;;;5069736;28;20601;-80
2022/05/30 11:01:45;;;;;;;1.42;0.40;;;22.20;53.70;;;;;;5067221;28;20203;-80
2022/05/30 11:04:31;;;;;;;1.80;0.60;;;22.20;53.70;;;;;;5069712;28;20228;-80
2022/05/30 11:07:10;;;;;;;2.88;0.80;;;22.20;53.50;;;;;;5068128;28;20257;-80
2022/05/30 11:09:47;;;;;;;1.75;0.40;;;22.20;53.60;;;;;;5065459;28;20568;-82
2022/05/30 11:12:20;;;;;;;0.85;0.60;;;22.20;53.60;;;;;;5063131;28;20180;-82
2022/05/30 11:15:02;;;;;;;1.92;0.45;;;22.20;53.70;;;;;;5064962;28;20226;-79
2022/05/30 11:17:35;;;;;;;4.18;0.40;;;22.20;53.70;;;;;;5066962;28;20195;-79
2022/05/30 11:20:06;;;;;;;0.82;0.50;;;22.30;53.90;;;;;;5066666;28;20244;-83
2022/05/30 11:22:39;;;;;;;1.08;0.50;;;22.30;53.90;;;;;;5061720;28;20627;-82
2022/05/30 11:25:12;;;;;;;6.88;2.42;;;22.30;53.80;;;;;;5057827;28;20292;-82
2022/05/30 11:27:40;;;;;;;14.23;3.75;;;22.30;53.90;;;;;;5057998;28;20754;-82
2022/05/30 11:30:30;;;;;;;9.70;3.15;;;22.30;53.50;;;;;;5057471;28;20203;-83
2022/05/30 11:33:21;;;;;;;14.65;4.32;;;22.30;53.20;;;;;;5058298;28;20216;-83
2022/05/30 11:35:55;;;;;;;15.40;4.38;;;22.30;53.10;;;;;;5057100;28;20271;-83
2022/05/30 11:38:52;;;;;;;19.00;4.30;;;22.20;53.00;;;;;;5057085;28;20279;-83
2022/05/30 11:41:41;;;;;;;31.45;4.85;;;22.20;52.70;;;;;;5044329;28;20200;-82
2022/05/30 11:44:35;;;;;;;16.63;4.70;;;22.20;52.60;;;;;;5056474;28;20292;-82
2022/05/30 11:47:16;;;;;;;12.35;4.13;;;22.10;52.40;;;;;;5045461;28;20721;-83
2022/05/30 11:49:55;;;;;;;10.85;3.58;;;22.10;52.30;;;;;;5057977;28;20211;-83
2022/05/30 11:52:33;;;;;;;11.35;3.80;;;22.10;52.10;;;;;;5058341;28;20272;-82
2022/05/30 11:55:14;;;;;;;13.13;3.60;;;22.10;51.90;;;;;;5056869;28;20263;-81
2022/05/30 11:57:46;;;;;;;13.00;3.30;;;22.10;51.70;;;;;;5058459;28;20188;-83
2022/05/30 12:00:28;;;;;;;13.23;2.80;;;22.00;51.50;;;;;;5062078;28;20184;-84
2022/05/30 12:03:13;;;;;;;15.30;3.17;;;22.00;51.30;;;;;;5059875;28;20234;-85
2022/05/30 12:06:22;;;;;;;8.10;2.70;;;22.00;51.20;;;;;;5058762;28;20208;-84
2022/05/30 12:09:18;;;;;;;8.27;2.00;;;22.10;51.70;;;;;;5059210;28;20189;-85
2022/05/30 12:12:12;;;;;;;7.97;2.00;;;22.10;51.20;;;;;;5056564;28;20621;-85
2022/05/30 12:15:15;;;;;;;7.55;1.67;;;22.10;51.00;;;;;;5058440;28;20192;-85
2022/05/30 12:23:51;;;;;;;3.70;1.30;;;22.10;51.00;;;;;;5061278;28;20686;-85
2022/05/30 12:26:39;;;;;;;7.30;1.58;;;22.10;51.00;;;;;;5058425;28;20569;-83
2022/05/30 12:29:07;;;;;;;2.72;1.30;;;22.20;51.10;;;;;;5057552;28;20291;-83
2022/05/30 12:31:39;;;;;;;2.05;1.10;;;22.20;51.10;;;;;;5056905;28;20203;-84
2022/05/30 12:34:07;;;;;;;2.10;1.10;;;22.20;51.10;;;;;;5057386;28;20307;-84
2022/05/30 12:36:45;;;;;;;2.08;1.10;;;22.30;51.10;;;;;;5056730;28;20192;-83
2022/05/30 12:39:39;;;;;;;2.33;0.93;;;22.30;51.10;;;;;;5056428;28;20263;-84
2022/05/30 12:42:09;;;;;;;11.68;6.28;;;22.40;51.10;;;;;;5057281;28;20655;-84
2022/05/30 12:44:54;;;;;;;16.38;8.65;;;22.30;51.00;;;;;;5057068;28;20200;-84
2022/05/30 12:47:31;;;;;;;15.90;7.88;;;22.30;50.50;;;;;;5057629;28;20244;-84
2022/05/30 12:50:49;;;;;;;13.40;7.13;;;22.20;50.10;;;;;;5059074;28;20276;-84
2022/05/30 12:53:16;;;;;;;18.13;7.13;;;22.20;49.70;;;;;;5058484;28;20312;-84
2022/05/30 12:55:45;;;;;;;12.18;6.22;;;22.10;49.50;;;;;;5057009;28;20283;-84
2022/05/30 12:58:15;;;;;;;13.07;5.65;;;22.10;49.30;;;;;;5056076;28;20569;-84
2022/05/30 13:01:08;;;;;;;11.35;4.32;;;22.10;49.10;;;;;;5055985;28;20283;-85
2022/05/30 13:03:42;;;;;;;15.70;4.78;;;22.10;48.90;;;;;;5053826;28;20227;-84
2022/05/30 13:06:17;;;;;;;19.08;6.07;;;22.10;48.90;;;;;;5056541;28;20213;-80
2022/05/30 13:09:15;;;;;;;14.85;5.65;;;22.10;48.90;;;;;;5058780;28;20545;-78
2022/05/30 13:11:59;;;;;;;37.95;6.32;;;22.20;48.90;;;;;;5056566;28;20271;-77
2022/05/30 13:14:49;;;;;;;29.88;6.03;;;22.20;48.90;;;;;;5058306;28;20254;-77
2022/05/30 13:17:25;;;;;;;43.47;5.75;;;22.30;49.00;;;;;;5057494;28;20191;-81
2022/05/30 13:19:54;;;;;;;37.95;5.60;;;22.30;49.00;;;;;;5057943;28;20240;-80
2022/05/30 13:22:28;;;;;;;24.80;2.92;;;22.30;49.00;;;;;;5054631;28;20200;-80
2022/05/30 13:24:55;;;;;;;14.07;2.35;;;22.30;49.00;;;;;;5055171;28;20208;-80
2022/05/30 13:27:22;;;;;;;18.13;3.03;;;22.30;48.90;;;;;;5058454;28;20231;-82
2022/05/30 13:29:49;;;;;;;21.70;2.70;;;22.30;48.70;;;;;;5056332;28;20287;-78
2022/05/30 13:32:21;;;;;;;4.38;1.80;;;22.30;48.70;;;;;;5056317;28;20236;-78
2022/05/30 13:34:52;;;;;;;7.75;1.60;;;22.30;48.60;;;;;;5055917;28;20598;-78
2022/05/30 13:37:24;;;;;;;6.55;1.73;;;22.30;48.50;;;;;;5056751;28;20583;-79